Varnadiep — PBIB — position and weather

sailwx.info

Track history (hours):
 
Tides and Currents Weather Stations Pressure Air Temp Water Temp Dewpoint Dewpoint Depression Visibility Wind Speed Wind Dir Waves Ship Positions

Varnadiep

Last reported at 2015-Jan-24 14:17 UTC. Time now 2015-Jan-30 09:31 UTC.
Position N 38°27' W 010°05'.

Length 118 m; draft 7.3 m.

Type: Cargo ship. MMSI: 244729000.

Date/timePositionNaut miles runAvg speedWind from/ knotsBaromVisibWave heightAir tempDewpointWater temp
2015-Jan-24 14:17N 38°27' W 010°05'  
2015-Jan-21 12:29N 50°32' E 000°02'1112.3
2015-Jan-21 11:33N 50°35' E 000°18'1111.1
2015-Jan-21 10:33N 50°39' E 000°35'1110.7
2015-Jan-21 09:33N 50°45' E 000°49'1211.5
2015-Jan-21 08:33N 50°52' E 001°04'1413.7
2015-Jan-21 07:33N 51°01' E 001°20'1515.1
2015-Jan-21 06:33N 51°10' E 001°39'1313.3
2015-Jan-21 05:33N 51°21' E 001°52'1211.7
2015-Jan-21 04:33N 51°31' E 002°01'1111.0
2015-Jan-21 03:33N 51°39' E 002°12'1010.3
2015-Jan-21 02:33N 51°47' E 002°24'13212.0
2015-Jan-20 15:34N 53°29' E 004°40'1212.2
2015-Jan-20 14:33N 53°33' E 004°60'1313.3
2015-Jan-20 13:34N 53°38' E 005°21'1413.6
2015-Jan-20 12:33N 53°42' E 005°42'6111.7
2015-Jan-20 07:21N 53°59' E 007°22'911.1
2015-Jan-20 06:33N 54°01' E 007°36'1212.4
2015-Jan-20 05:33N 54°01' E 007°57'1313.1
2015-Jan-20 04:33N 53°60' E 008°19'1514.7
2015-Jan-20 03:33N 53°54' E 008°42'1413.8
2015-Jan-20 02:33N 53°53' E 009°05'3 3.0
2015-Jan-20 01:33N 53°54' E 009°10'8 8.1
2015-Jan-20 00:33N 54°01' E 009°18'9 6.6
2015-Jan-19 23:09N 54°09' E 009°23'5 8.1
2015-Jan-19 22:33N 54°11' E 009°31'4 4.1
2015-Jan-19 21:33N 54°14' E 009°36'6 6.3
2015-Jan-19 20:33N 54°19' E 009°43'6 6.5
2015-Jan-19 19:33N 54°21' E 009°53'5 4.8
2015-Jan-19 18:33N 54°22' E 010°01'7 2.2
2015-Jan-19 15:22N 54°24' E 010°12'8 9.7
2015-Jan-19 14:33N 54°31' E 010°19'4 4.2
2015-Jan-19 13:33N 54°32' E 010°26'1612.6
2015-Jan-19 12:18N 54°35' E 010°53'1013.7
2015-Jan-19 11:33N 54°36' E 011°11'1413.5
2015-Jan-19 10:33N 54°30' E 011°32'1312.9
2015-Jan-19 09:34N 54°27' E 011°53'1211.7
2015-Jan-19 08:33N 54°31' E 012°12'1212.3
2015-Jan-19 07:33N 54°41' E 012°25'1313.1
2015-Jan-19 06:33N 54°47' E 012°45'1313.4
2015-Jan-19 05:33N 54°47' E 013°08'1413.7
2015-Jan-19 04:33N 54°46' E 013°32'1313.4
2015-Jan-19 03:33N 54°43' E 013°54'1413.5
2015-Jan-19 02:32N 54°39' E 014°17'1712.9
2015-Jan-19 01:13N 54°40' E 014°46'912.8
2015-Jan-19 00:33N 54°41' E 015°01'10712.7
2015-Jan-18 16:07N 54°58' E 018°04'713.0
2015-Jan-18 15:33N 54°59' E 018°16'1212.5
2015-Jan-18 14:34N 54°58' E 018°38'1313.0
2015-Jan-18 13:33N 54°53' E 018°59'1312.8
2015-Jan-18 12:34N 54°49' E 019°20'1212.5
2015-Jan-18 11:34N 54°44' E 019°39'1110.6
2015-Jan-18 10:33N 54°38' E 019°55'0 0.1
2015-Jan-18 09:30N 54°38' E 019°55'0 0.0
2015-Jan-18 08:33N 54°38' E 019°55'0 0.0
2015-Jan-18 07:33N 54°38' E 019°55'0 0.0
2015-Jan-18 06:15N 54°38' E 019°55'0 0.0
2015-Jan-18 02:24N 54°38' E 019°55'8 1.7
2015-Jan-17 21:33N 54°42' E 019°43'9 8.9
2015-Jan-17 20:34N 54°50' E 019°34'  
Track history (hours):
 
Tides and Currents Weather Stations Pressure Air Temp Water Temp Dewpoint Dewpoint Depression Visibility Wind Speed Wind Dir Waves Ship Positions

Varnadiep

Last reported at 2015-Jan-24 14:17 UTC. Time now 2015-Jan-30 09:31 UTC.
Position N 38°27' W 010°05'.

Length 118 m; draft 7.3 m.

Type: Cargo ship. MMSI: 244729000.

Date/timePositionNaut miles runAvg speedWind from/ knotsBaromVisibWave heightAir tempDewpointWater temp
2015-Jan-24 14:17N 38°27' W 010°05'  
2015-Jan-21 12:29N 50°32' E 000°02'1112.3
2015-Jan-21 11:33N 50°35' E 000°18'1111.1
2015-Jan-21 10:33N 50°39' E 000°35'1110.7
2015-Jan-21 09:33N 50°45' E 000°49'1211.5
2015-Jan-21 08:33N 50°52' E 001°04'1413.7
2015-Jan-21 07:33N 51°01' E 001°20'1515.1
2015-Jan-21 06:33N 51°10' E 001°39'1313.3
2015-Jan-21 05:33N 51°21' E 001°52'1211.7
2015-Jan-21 04:33N 51°31' E 002°01'1111.0
2015-Jan-21 03:33N 51°39' E 002°12'1010.3
2015-Jan-21 02:33N 51°47' E 002°24'13212.0
2015-Jan-20 15:34N 53°29' E 004°40'1212.2
2015-Jan-20 14:33N 53°33' E 004°60'1313.3
2015-Jan-20 13:34N 53°38' E 005°21'1413.6
2015-Jan-20 12:33N 53°42' E 005°42'6111.7
2015-Jan-20 07:21N 53°59' E 007°22'911.1
2015-Jan-20 06:33N 54°01' E 007°36'1212.4
2015-Jan-20 05:33N 54°01' E 007°57'1313.1
2015-Jan-20 04:33N 53°60' E 008°19'1514.7
2015-Jan-20 03:33N 53°54' E 008°42'1413.8
2015-Jan-20 02:33N 53°53' E 009°05'3 3.0
2015-Jan-20 01:33N 53°54' E 009°10'8 8.1
2015-Jan-20 00:33N 54°01' E 009°18'9 6.6
2015-Jan-19 23:09N 54°09' E 009°23'5 8.1
2015-Jan-19 22:33N 54°11' E 009°31'4 4.1
2015-Jan-19 21:33N 54°14' E 009°36'6 6.3
2015-Jan-19 20:33N 54°19' E 009°43'6 6.5
2015-Jan-19 19:33N 54°21' E 009°53'5 4.8
2015-Jan-19 18:33N 54°22' E 010°01'7 2.2
2015-Jan-19 15:22N 54°24' E 010°12'8 9.7
2015-Jan-19 14:33N 54°31' E 010°19'4 4.2
2015-Jan-19 13:33N 54°32' E 010°26'1612.6
2015-Jan-19 12:18N 54°35' E 010°53'1013.7
2015-Jan-19 11:33N 54°36' E 011°11'1413.5
2015-Jan-19 10:33N 54°30' E 011°32'1312.9
2015-Jan-19 09:34N 54°27' E 011°53'1211.7
2015-Jan-19 08:33N 54°31' E 012°12'1212.3
2015-Jan-19 07:33N 54°41' E 012°25'1313.1
2015-Jan-19 06:33N 54°47' E 012°45'1313.4
2015-Jan-19 05:33N 54°47' E 013°08'1413.7
2015-Jan-19 04:33N 54°46' E 013°32'1313.4
2015-Jan-19 03:33N 54°43' E 013°54'1413.5
2015-Jan-19 02:32N 54°39' E 014°17'1712.9
2015-Jan-19 01:13N 54°40' E 014°46'912.8
2015-Jan-19 00:33N 54°41' E 015°01'10712.7
2015-Jan-18 16:07N 54°58' E 018°04'713.0
2015-Jan-18 15:33N 54°59' E 018°16'1212.5
2015-Jan-18 14:34N 54°58' E 018°38'1313.0
2015-Jan-18 13:33N 54°53' E 018°59'1312.8
2015-Jan-18 12:34N 54°49' E 019°20'1212.5
2015-Jan-18 11:34N 54°44' E 019°39'1110.6
2015-Jan-18 10:33N 54°38' E 019°55'0 0.1
2015-Jan-18 09:30N 54°38' E 019°55'0 0.0
2015-Jan-18 08:33N 54°38' E 019°55'0 0.0
2015-Jan-18 07:33N 54°38' E 019°55'0 0.0
2015-Jan-18 06:15N 54°38' E 019°55'0 0.0
2015-Jan-18 02:24N 54°38' E 019°55'8 1.7
2015-Jan-17 21:33N 54°42' E 019°43'9 8.9
2015-Jan-17 20:34N 54°50' E 019°34'  

Dump ship's entire track history